Lancaster, South Carolina
Current Conditions -  °F | °C
As of 2:15 PM on Saturday 20 Dec 2014 (Local Time) from KLKR Reporting Station
Overcast Overcast  
Wind Chill: 42°   Ceiling: 2600
Heat Index: 45°   Visibility: 10mi
Dew Point: 43°   Wind: 5mph
Humidity: 93%   Direction: 30°NNE
Pressure: 30.21"   Gusts: NA
Location:  34.72°N, 80.77°W
Report Text: KLKR 201915Z AUTO 03004KT 10SM OVC026 07/06 A3021 RMK AO2
Loading
Personal Weather Stations






























Interactive Weather Map New forecast layout! Learn more

10-Day Weather Forecast

Advertisements
Track Severe Weather on mobile